createdAt,value
2022-12-01T00:03:33.807Z,9.14
2022-12-01T00:08:36.335Z,9.14
2022-12-01T00:13:38.927Z,9.16
2022-12-01T00:18:41.602Z,8.82
2022-12-01T00:23:48.634Z,8.95
2022-12-01T00:28:56.703Z,9.01
2022-12-01T00:33:59.104Z,8.91
2022-12-01T00:39:01.541Z,8.79
2022-12-01T00:44:04.058Z,8.59
2022-12-01T00:49:06.441Z,8.38
2022-12-01T00:54:08.860Z,8.36
2022-12-01T00:59:12.009Z,8.25
2022-12-01T01:04:14.603Z,8.32
2022-12-01T01:09:17.656Z,8.32
2022-12-01T01:14:20.679Z,8.39
2022-12-01T01:19:23.853Z,8.22
2022-12-01T01:24:26.356Z,8.41
2022-12-01T01:29:28.746Z,8.48
2022-12-01T01:34:31.206Z,8.53
2022-12-01T01:39:33.550Z,8.94
2022-12-01T01:44:58.248Z,8.76
2022-12-01T01:50:08.434Z,8.59
2022-12-01T01:55:11.157Z,8.53
2022-12-01T02:00:17.369Z,8.57
2022-12-01T02:05:29.474Z,8.60
2022-12-01T02:10:59.313Z,8.59
2022-12-01T02:16:16.800Z,8.66
2022-12-01T02:21:27.016Z,8.64
2022-12-01T02:26:55.909Z,8.50
2022-12-01T02:32:07.663Z,8.23
2022-12-01T02:37:41.849Z,8.01
2022-12-01T02:43:09.711Z,8.15
2022-12-01T02:48:37.367Z,8.23
2022-12-01T02:53:39.951Z,8.22
2022-12-01T02:58:44.037Z,8.19
2022-12-01T03:04:01.875Z,8.25
2022-12-01T03:09:13.081Z,8.24
2022-12-01T03:14:42.717Z,8.16
2022-12-01T03:19:50.370Z,8.37
2022-12-01T03:24:55.838Z,8.49
2022-12-01T03:30:01.047Z,8.36
2022-12-01T03:35:19.065Z,8.36
2022-12-01T03:40:27.259Z,8.52
2022-12-01T03:45:56.091Z,8.55
2022-12-01T03:51:22.950Z,8.26
2022-12-01T03:56:39.536Z,8.12
2022-12-01T04:01:42.451Z,8.13
2022-12-01T04:06:50.304Z,8.12
2022-12-01T04:12:11.560Z,8.10
2022-12-01T04:17:14.181Z,7.85
2022-12-01T04:22:16.791Z,7.81
2022-12-01T04:27:20.339Z,7.85
2022-12-01T04:32:22.747Z,7.67
2022-12-01T04:37:25.150Z,7.68
2022-12-01T04:42:27.505Z,7.63
2022-12-01T04:47:29.868Z,7.72
2022-12-01T04:52:35.180Z,7.73
2022-12-01T04:57:39.581Z,7.74
2022-12-01T05:02:44.923Z,7.78
2022-12-01T05:07:47.301Z,7.85
2022-12-01T05:12:49.907Z,7.84
2022-12-01T05:17:52.387Z,7.87
2022-12-01T05:23:07.135Z,7.93
2022-12-01T05:28:10.532Z,7.78
2022-12-01T05:33:13.267Z,7.83
2022-12-01T05:38:15.921Z,7.86
2022-12-01T05:43:21.605Z,7.93
2022-12-01T05:48:26.417Z,7.93
2022-12-01T05:53:28.906Z,7.88
2022-12-01T05:58:31.343Z,7.92
2022-12-01T06:03:33.842Z,7.90
2022-12-01T06:08:36.493Z,7.90
2022-12-01T06:13:39.055Z,7.87
2022-12-01T06:18:41.413Z,7.93
2022-12-01T06:23:44.192Z,7.95
2022-12-01T06:28:46.793Z,7.94
2022-12-01T06:33:49.154Z,8.01
2022-12-01T06:38:51.595Z,8.06
2022-12-01T06:43:54.830Z,8.01
2022-12-01T06:48:57.506Z,7.97
2022-12-01T06:54:05.233Z,7.87
2022-12-01T06:59:08.121Z,7.76
2022-12-01T07:04:10.795Z,7.91
2022-12-01T07:09:13.484Z,7.86
2022-12-01T07:14:24.263Z,7.92
2022-12-01T07:19:27.004Z,7.95
2022-12-01T07:24:30.490Z,7.89
2022-12-01T07:29:32.954Z,7.96
2022-12-01T07:34:35.320Z,7.97
2022-12-01T07:39:37.921Z,7.94
2022-12-01T07:44:40.291Z,7.82
2022-12-01T07:49:42.838Z,7.84
2022-12-01T07:54:45.425Z,7.85
2022-12-01T07:59:48.281Z,7.87
2022-12-01T08:04:50.948Z,7.89
2022-12-01T08:09:53.298Z,7.96
2022-12-01T08:14:55.651Z,7.92
2022-12-01T08:19:58.232Z,8.02
2022-12-01T08:25:00.652Z,8.03
2022-12-01T08:30:03.462Z,7.95
2022-12-01T08:35:06.567Z,8.00
2022-12-01T08:40:09.471Z,8.02
2022-12-01T08:45:12.402Z,8.07
2022-12-01T08:50:15.577Z,8.09
2022-12-01T08:55:18.214Z,8.15
2022-12-01T09:00:20.670Z,8.14
2022-12-01T09:05:23.063Z,8.17
2022-12-01T09:10:25.686Z,8.20
2022-12-01T09:15:28.019Z,8.08
2022-12-01T09:20:30.349Z,8.02
2022-12-01T09:25:34.371Z,8.18
2022-12-01T09:30:37.390Z,8.17
2022-12-01T09:35:39.911Z,7.92
2022-12-01T09:40:43.611Z,7.99
2022-12-01T09:45:52.845Z,7.88
2022-12-01T09:50:55.745Z,8.06
2022-12-01T09:56:05.936Z,8.18
2022-12-01T10:01:17.989Z,8.20
2022-12-01T10:06:29.513Z,8.12
2022-12-01T10:11:40.291Z,8.14
2022-12-01T10:17:05.675Z,8.28
2022-12-01T10:22:26.124Z,8.34
2022-12-01T10:27:52.305Z,8.26
2022-12-01T10:32:56.281Z,8.17
2022-12-01T10:38:01.741Z,8.21
2022-12-01T10:43:04.425Z,8.29
2022-12-01T10:48:15.208Z,8.20
2022-12-01T10:53:36.703Z,8.12
2022-12-01T10:58:55.416Z,8.10
2022-12-01T11:04:19.480Z,8.17
2022-12-01T11:09:28.550Z,8.19
2022-12-01T11:14:49.541Z,8.13
2022-12-01T11:19:52.559Z,8.12
2022-12-01T11:24:55.204Z,8.24
2022-12-01T11:30:05.379Z,8.33
2022-12-01T11:35:11.004Z,8.29
2022-12-01T11:40:52.839Z,8.39
2022-12-01T11:45:58.275Z,8.32
2022-12-01T11:51:08.206Z,8.40
2022-12-01T11:56:24.129Z,8.52
2022-12-01T12:01:35.200Z,8.62
2022-12-01T12:06:56.695Z,8.62
2022-12-01T12:12:08.386Z,8.71
2022-12-01T12:17:31.783Z,8.65
2022-12-01T12:23:05.304Z,8.68
2022-12-01T12:28:22.701Z,8.48
2022-12-01T12:33:59.459Z,8.69
2022-12-01T12:39:16.462Z,8.73
2022-12-01T12:44:37.357Z,8.70
2022-12-01T12:49:47.623Z,8.73
2022-12-01T12:54:55.063Z,8.76
2022-12-01T13:00:19.560Z,8.71
2022-12-01T13:05:46.163Z,8.73
2022-12-01T13:11:07.990Z,8.89
2022-12-01T13:16:18.406Z,8.79
2022-12-01T13:21:22.555Z,8.68
2022-12-01T13:26:25.277Z,8.69
2022-12-01T13:31:27.821Z,8.67
2022-12-01T13:36:48.929Z,8.37
2022-12-01T13:42:01.209Z,8.46
2022-12-01T13:47:12.017Z,8.67
2022-12-01T13:52:23.720Z,8.71
2022-12-01T13:57:29.526Z,8.73
2022-12-01T14:02:34.129Z,8.64
2022-12-01T14:07:38.568Z,8.64
2022-12-01T14:12:45.681Z,8.63
2022-12-01T14:17:58.288Z,8.68
2022-12-01T14:23:16.475Z,8.66
2022-12-01T14:28:57.916Z,8.80
2022-12-01T14:34:13.206Z,8.67
2022-12-01T14:39:33.847Z,8.43
2022-12-01T14:44:41.847Z,8.52
2022-12-01T14:50:07.496Z,8.52
2022-12-01T14:55:22.352Z,8.60
2022-12-01T15:00:25.554Z,8.65
2022-12-01T15:05:31.030Z,8.71
2022-12-01T15:10:37.741Z,8.65
2022-12-01T15:15:52.149Z,8.59
2022-12-01T15:21:09.265Z,8.54
2022-12-01T15:26:21.078Z,8.58
2022-12-01T15:31:23.707Z,8.52
2022-12-01T15:36:26.448Z,8.54
2022-12-01T15:41:30.214Z,8.68
2022-12-01T15:46:37.372Z,8.58
2022-12-01T15:51:39.839Z,8.60
2022-12-01T15:56:42.584Z,8.62
2022-12-01T16:01:45.854Z,8.67
2022-12-01T16:06:59.628Z,8.54
2022-12-01T16:12:17.744Z,8.59
2022-12-01T16:17:20.601Z,8.52
2022-12-01T16:22:23.256Z,8.51
2022-12-01T16:27:26.572Z,8.66
2022-12-01T16:32:40.580Z,8.56
2022-12-01T16:37:43.288Z,8.36
2022-12-01T16:42:46.803Z,8.53
2022-12-01T16:47:49.567Z,8.65
2022-12-01T16:52:51.918Z,8.47
2022-12-01T16:57:55.459Z,8.57
2022-12-01T17:02:58.570Z,8.51
2022-12-01T17:08:01.197Z,8.54
2022-12-01T17:13:03.638Z,8.54
2022-12-01T17:18:06.347Z,8.50
2022-12-01T17:23:08.780Z,8.31
2022-12-01T17:28:11.187Z,8.33
2022-12-01T17:33:13.768Z,8.39
2022-12-01T17:38:17.036Z,8.37
2022-12-01T17:43:20.930Z,8.37
2022-12-01T17:48:23.530Z,8.35
2022-12-01T17:53:27.187Z,8.41
2022-12-01T17:58:30.827Z,8.53
2022-12-01T18:03:33.271Z,8.46
2022-12-01T18:08:36.740Z,8.47
2022-12-01T18:13:50.080Z,8.38
2022-12-01T18:18:53.497Z,8.39
2022-12-01T18:23:58.559Z,8.44
2022-12-01T18:29:04.930Z,8.44
2022-12-01T18:34:08.111Z,8.42
2022-12-01T18:39:12.050Z,8.50
2022-12-01T18:44:15.460Z,8.53
2022-12-01T18:49:18.769Z,8.55
2022-12-01T18:54:21.274Z,8.53
2022-12-01T18:59:23.633Z,8.51
2022-12-01T19:04:26.125Z,8.45
2022-12-01T19:09:28.559Z,8.51
2022-12-01T19:14:32.716Z,8.59
2022-12-01T19:19:37.580Z,8.53
2022-12-01T19:24:40.300Z,8.48
2022-12-01T19:29:42.827Z,8.36
2022-12-01T19:34:46.011Z,8.41
2022-12-01T19:39:48.417Z,8.51
2022-12-01T19:44:51.127Z,8.40
2022-12-01T19:49:53.607Z,8.40
2022-12-01T19:54:56.045Z,8.57
2022-12-01T19:59:58.428Z,8.56
2022-12-01T20:05:01.101Z,8.57
2022-12-01T20:10:03.894Z,8.55
2022-12-01T20:15:08.707Z,8.55
2022-12-01T20:20:12.349Z,8.52
2022-12-01T20:25:15.187Z,8.35
2022-12-01T20:30:17.636Z,8.50
2022-12-01T20:35:20.099Z,8.47
2022-12-01T20:40:22.593Z,8.48
2022-12-01T20:45:25.000Z,8.53
2022-12-01T20:50:27.600Z,8.45
2022-12-01T20:55:30.062Z,8.53
2022-12-01T21:00:32.754Z,8.53
2022-12-01T21:05:38.118Z,8.51
2022-12-01T21:10:44.936Z,8.45
2022-12-01T21:15:58.592Z,8.40
2022-12-01T21:21:34.724Z,8.43
2022-12-01T21:26:41.096Z,8.30
2022-12-01T21:31:44.476Z,8.30
2022-12-01T21:36:49.316Z,8.13
2022-12-01T21:41:54.978Z,8.33
2022-12-01T21:46:59.251Z,8.55
2022-12-01T21:52:03.580Z,8.32
2022-12-01T21:57:42.502Z,8.18
2022-12-01T22:03:08.713Z,8.32
2022-12-01T22:08:23.711Z,8.13
2022-12-01T22:13:47.049Z,8.30
2022-12-01T22:18:58.011Z,8.23
2022-12-01T22:24:08.967Z,8.21
2022-12-01T22:29:42.038Z,8.08
2022-12-01T22:34:55.249Z,8.26
2022-12-01T22:39:57.867Z,8.35
2022-12-01T22:45:22.363Z,8.29
2022-12-01T22:50:31.020Z,8.27
2022-12-01T22:55:34.033Z,8.26
2022-12-01T23:00:36.417Z,7.88
2022-12-01T23:05:38.869Z,7.84
2022-12-01T23:10:42.270Z,8.10
2022-12-01T23:15:50.744Z,8.42
2022-12-01T23:20:58.822Z,8.72
2022-12-01T23:26:07.092Z,8.69
2022-12-01T23:31:10.149Z,8.46
2022-12-01T23:36:16.339Z,8.30
2022-12-01T23:41:35.920Z,8.60
2022-12-01T23:46:38.558Z,8.47
2022-12-01T23:51:49.811Z,8.53
2022-12-01T23:57:16.390Z,8.51
